Terminal Aerodrome Forecast
Issued by NWS

Home | Current Version | Previous Version | Text Only | Print | Product List | Glossary On
Versions: 1 2 3 4 5 6 7 8 9 10 11 12 13 14 15 16 17 18
000
FTUS41 KCLE 202300
TAFFDY
TAF
KFDY 202326Z 2100/2124 25008KT P6SM FEW050
     FM210800 23004KT 5SM BR BKN050
      TEMPO 2109/2112 3SM -SHRA
     FM211300 24006KT 6SM HZ BKN050
     FM211800 25008KT P6SM BKN035
      TEMPO 2118/2121 3SM TSRA OVC025CB=

USA.gov is the U.S. government's official web portal to all federal, state and local government web resources and services.